sensor_id;sensor_type;location;lat;lon;timestamp;temperature;humidity
25918;DHT22;13899;51.174;4.456;2023-03-14T00:00:49;11.40;99.90
25918;DHT22;13899;51.174;4.456;2023-03-14T00:03:14;11.30;99.90
25918;DHT22;13899;51.174;4.456;2023-03-14T00:05:40;11.40;99.90
25918;DHT22;13899;51.174;4.456;2023-03-14T00:08:05;11.40;99.90
25918;DHT22;13899;51.174;4.456;2023-03-14T00:10:31;11.40;99.90
25918;DHT22;13899;51.174;4.456;2023-03-14T00:12:57;11.40;99.90
25918;DHT22;13899;51.174;4.456;2023-03-14T00:15:22;11.40;99.90
25918;DHT22;13899;51.174;4.456;2023-03-14T00:17:48;11.30;99.90
25918;DHT22;13899;51.174;4.456;2023-03-14T00:20:13;11.40;99.90
25918;DHT22;13899;51.174;4.456;2023-03-14T00:22:40;11.30;99.90
25918;DHT22;13899;51.174;4.456;2023-03-14T00:25:07;11.30;99.90
25918;DHT22;13899;51.174;4.456;2023-03-14T00:27:33;11.20;99.90
25918;DHT22;13899;51.174;4.456;2023-03-14T00:29:59;11.20;99.90
25918;DHT22;13899;51.174;4.456;2023-03-14T00:32:25;11.20;99.90
25918;DHT22;13899;51.174;4.456;2023-03-14T00:34:52;11.20;99.90
25918;DHT22;13899;51.174;4.456;2023-03-14T00:37:18;11.10;99.90
25918;DHT22;13899;51.174;4.456;2023-03-14T00:39:44;11.10;99.90
25918;DHT22;13899;51.174;4.456;2023-03-14T00:42:10;11.10;99.90
25918;DHT22;13899;51.174;4.456;2023-03-14T00:44:35;11.10;99.90
25918;DHT22;13899;51.174;4.456;2023-03-14T00:47:01;11.10;99.90
25918;DHT22;13899;51.174;4.456;2023-03-14T00:49:27;11.20;99.90
25918;DHT22;13899;51.174;4.456;2023-03-14T00:51:52;11.10;99.90
25918;DHT22;13899;51.174;4.456;2023-03-14T00:54:20;11.20;99.90
25918;DHT22;13899;51.174;4.456;2023-03-14T00:56:46;11.20;99.90
25918;DHT22;13899;51.174;4.456;2023-03-14T00:59:12;11.20;99.90
25918;DHT22;13899;51.174;4.456;2023-03-14T01:01:39;11.20;99.90
25918;DHT22;13899;51.174;4.456;2023-03-14T01:04:05;11.20;99.90
25918;DHT22;13899;51.174;4.456;2023-03-14T01:06:30;11.20;99.90
25918;DHT22;13899;51.174;4.456;2023-03-14T01:08:57;11.10;99.90
25918;DHT22;13899;51.174;4.456;2023-03-14T01:11:28;11.20;99.90
25918;DHT22;13899;51.174;4.456;2023-03-14T01:13:55;11.20;99.90
25918;DHT22;13899;51.174;4.456;2023-03-14T01:16:22;11.20;99.90
25918;DHT22;13899;51.174;4.456;2023-03-14T01:18:48;11.00;99.90
25918;DHT22;13899;51.174;4.456;2023-03-14T01:21:20;11.10;99.90
25918;DHT22;13899;51.174;4.456;2023-03-14T01:23:46;11.10;99.90
25918;DHT22;13899;51.174;4.456;2023-03-14T01:26:16;11.10;99.90
25918;DHT22;13899;51.174;4.456;2023-03-14T01:28:44;11.10;99.90
25918;DHT22;13899;51.174;4.456;2023-03-14T01:31:10;11.10;99.90
25918;DHT22;13899;51.174;4.456;2023-03-14T01:33:36;11.10;99.90
25918;DHT22;13899;51.174;4.456;2023-03-14T01:36:02;11.00;99.90
25918;DHT22;13899;51.174;4.456;2023-03-14T01:38:29;11.00;99.90
25918;DHT22;13899;51.174;4.456;2023-03-14T01:40:55;11.00;99.90
25918;DHT22;13899;51.174;4.456;2023-03-14T01:43:21;11.00;99.90
25918;DHT22;13899;51.174;4.456;2023-03-14T01:46:28;10.90;99.90
25918;DHT22;13899;51.174;4.456;2023-03-14T01:49:00;10.80;99.90
25918;DHT22;13899;51.174;4.456;2023-03-14T01:51:29;10.90;99.90
25918;DHT22;13899;51.174;4.456;2023-03-14T01:54:04;10.80;99.90
25918;DHT22;13899;51.174;4.456;2023-03-14T01:56:31;10.90;99.90
25918;DHT22;13899;51.174;4.456;2023-03-14T01:58:58;10.80;99.90
25918;DHT22;13899;51.174;4.456;2023-03-14T02:01:26;10.80;99.90
25918;DHT22;13899;51.174;4.456;2023-03-14T02:03:58;10.80;99.90
25918;DHT22;13899;51.174;4.456;2023-03-14T02:06:32;10.80;99.90
25918;DHT22;13899;51.174;4.456;2023-03-14T02:09:00;10.80;99.90
25918;DHT22;13899;51.174;4.456;2023-03-14T02:11:28;10.80;99.90
25918;DHT22;13899;51.174;4.456;2023-03-14T02:13:56;10.80;99.90
25918;DHT22;13899;51.174;4.456;2023-03-14T02:16:23;10.70;99.90
25918;DHT22;13899;51.174;4.456;2023-03-14T02:18:48;10.50;99.90
25918;DHT22;13899;51.174;4.456;2023-03-14T02:26:42;10.80;99.90
25918;DHT22;13899;51.174;4.456;2023-03-14T02:29:10;10.80;99.90
25918;DHT22;13899;51.174;4.456;2023-03-14T02:31:36;10.80;99.90
25918;DHT22;13899;51.174;4.456;2023-03-14T02:34:02;10.80;99.90
25918;DHT22;13899;51.174;4.456;2023-03-14T02:36:29;10.80;99.90
25918;DHT22;13899;51.174;4.456;2023-03-14T02:39:08;10.80;99.90
25918;DHT22;13899;51.174;4.456;2023-03-14T02:41:37;10.80;99.90
25918;DHT22;13899;51.174;4.456;2023-03-14T02:44:03;10.80;99.90
25918;DHT22;13899;51.174;4.456;2023-03-14T02:46:28;10.80;99.90
25918;DHT22;13899;51.174;4.456;2023-03-14T02:51:24;10.80;99.90
25918;DHT22;13899;51.174;4.456;2023-03-14T02:53:51;10.80;99.90
25918;DHT22;13899;51.174;4.456;2023-03-14T02:56:16;10.60;99.90
25918;DHT22;13899;51.174;4.456;2023-03-14T02:58:43;10.60;99.90
25918;DHT22;13899;51.174;4.456;2023-03-14T03:01:09;10.60;99.90
25918;DHT22;13899;51.174;4.456;2023-03-14T03:03:34;10.60;99.90
25918;DHT22;13899;51.174;4.456;2023-03-14T03:06:00;10.50;99.90
25918;DHT22;13899;51.174;4.456;2023-03-14T03:08:28;10.50;99.90
25918;DHT22;13899;51.174;4.456;2023-03-14T03:10:54;10.50;99.90
25918;DHT22;13899;51.174;4.456;2023-03-14T03:13:20;10.50;99.90
25918;DHT22;13899;51.174;4.456;2023-03-14T03:15:46;10.50;99.90
25918;DHT22;13899;51.174;4.456;2023-03-14T03:18:12;10.50;99.90
25918;DHT22;13899;51.174;4.456;2023-03-14T03:20:38;10.40;99.90
25918;DHT22;13899;51.174;4.456;2023-03-14T03:23:04;10.50;99.90
25918;DHT22;13899;51.174;4.456;2023-03-14T03:25:30;10.50;99.90
25918;DHT22;13899;51.174;4.456;2023-03-14T03:27:56;10.50;99.90
25918;DHT22;13899;51.174;4.456;2023-03-14T03:30:22;10.40;99.90
25918;DHT22;13899;51.174;4.456;2023-03-14T03:32:50;10.40;99.90
25918;DHT22;13899;51.174;4.456;2023-03-14T03:35:17;10.30;99.90
25918;DHT22;13899;51.174;4.456;2023-03-14T03:37:43;10.30;99.90
25918;DHT22;13899;51.174;4.456;2023-03-14T03:40:09;10.30;99.90
25918;DHT22;13899;51.174;4.456;2023-03-14T03:42:35;10.20;99.90
25918;DHT22;13899;51.174;4.456;2023-03-14T03:45:01;10.10;99.90
25918;DHT22;13899;51.174;4.456;2023-03-14T03:47:27;10.00;99.90
25918;DHT22;13899;51.174;4.456;2023-03-14T03:49:53;9.80;99.90
25918;DHT22;13899;51.174;4.456;2023-03-14T03:52:18;9.90;99.90
25918;DHT22;13899;51.174;4.456;2023-03-14T03:54:45;9.90;99.90
25918;DHT22;13899;51.174;4.456;2023-03-14T03:57:11;9.90;99.90
25918;DHT22;13899;51.174;4.456;2023-03-14T03:59:36;10.00;99.90
25918;DHT22;13899;51.174;4.456;2023-03-14T04:02:04;9.90;99.90
25918;DHT22;13899;51.174;4.456;2023-03-14T04:04:29;10.00;99.90
25918;DHT22;13899;51.174;4.456;2023-03-14T04:06:55;9.90;99.90
25918;DHT22;13899;51.174;4.456;2023-03-14T04:09:20;9.90;99.90
25918;DHT22;13899;51.174;4.456;2023-03-14T04:11:46;9.90;99.90
25918;DHT22;13899;51.174;4.456;2023-03-14T04:14:11;9.80;99.90
25918;DHT22;13899;51.174;4.456;2023-03-14T04:16:37;9.90;99.90
25918;DHT22;13899;51.174;4.456;2023-03-14T04:19:03;10.00;99.90
25918;DHT22;13899;51.174;4.456;2023-03-14T04:21:28;10.00;99.90
25918;DHT22;13899;51.174;4.456;2023-03-14T04:23:54;10.00;99.90
25918;DHT22;13899;51.174;4.456;2023-03-14T04:26:20;10.10;99.90
25918;DHT22;13899;51.174;4.456;2023-03-14T04:28:46;10.00;99.90
25918;DHT22;13899;51.174;4.456;2023-03-14T04:31:14;10.10;99.90
25918;DHT22;13899;51.174;4.456;2023-03-14T04:33:40;10.10;99.90
25918;DHT22;13899;51.174;4.456;2023-03-14T04:36:08;10.20;99.90
25918;DHT22;13899;51.174;4.456;2023-03-14T04:38:34;10.10;99.90
25918;DHT22;13899;51.174;4.456;2023-03-14T04:41:00;10.00;99.90
25918;DHT22;13899;51.174;4.456;2023-03-14T04:43:26;10.00;99.90
25918;DHT22;13899;51.174;4.456;2023-03-14T04:45:56;10.00;99.90
25918;DHT22;13899;51.174;4.456;2023-03-14T04:48:22;10.00;99.90
25918;DHT22;13899;51.174;4.456;2023-03-14T04:50:53;10.00;99.90
25918;DHT22;13899;51.174;4.456;2023-03-14T04:53:19;10.00;99.90
25918;DHT22;13899;51.174;4.456;2023-03-14T04:55:51;10.10;99.90
25918;DHT22;13899;51.174;4.456;2023-03-14T04:58:18;10.00;99.90
25918;DHT22;13899;51.174;4.456;2023-03-14T05:00:43;9.90;99.90
25918;DHT22;13899;51.174;4.456;2023-03-14T05:03:09;10.10;99.90
25918;DHT22;13899;51.174;4.456;2023-03-14T05:05:35;10.00;99.90
25918;DHT22;13899;51.174;4.456;2023-03-14T05:08:00;9.90;99.90
25918;DHT22;13899;51.174;4.456;2023-03-14T05:10:26;10.00;99.90
25918;DHT22;13899;51.174;4.456;2023-03-14T05:12:51;10.00;99.90
25918;DHT22;13899;51.174;4.456;2023-03-14T05:15:17;10.00;99.90
25918;DHT22;13899;51.174;4.456;2023-03-14T05:17:43;10.10;99.90
25918;DHT22;13899;51.174;4.456;2023-03-14T05:20:09;10.20;99.90
25918;DHT22;13899;51.174;4.456;2023-03-14T05:22:35;10.20;99.90
25918;DHT22;13899;51.174;4.456;2023-03-14T05:25:01;10.10;99.90
25918;DHT22;13899;51.174;4.456;2023-03-14T05:27:26;10.10;99.90
25918;DHT22;13899;51.174;4.456;2023-03-14T05:29:52;10.30;99.90
25918;DHT22;13899;51.174;4.456;2023-03-14T05:32:20;10.30;99.90
25918;DHT22;13899;51.174;4.456;2023-03-14T05:34:46;10.40;99.90
25918;DHT22;13899;51.174;4.456;2023-03-14T05:37:12;10.40;99.90
25918;DHT22;13899;51.174;4.456;2023-03-14T05:39:37;10.50;99.90
25918;DHT22;13899;51.174;4.456;2023-03-14T05:42:03;10.50;99.90
25918;DHT22;13899;51.174;4.456;2023-03-14T05:44:28;10.40;99.90
25918;DHT22;13899;51.174;4.456;2023-03-14T05:46:54;10.50;99.90
25918;DHT22;13899;51.174;4.456;2023-03-14T05:49:20;10.50;99.90
25918;DHT22;13899;51.174;4.456;2023-03-14T05:51:45;10.40;99.90
25918;DHT22;13899;51.174;4.456;2023-03-14T05:54:11;10.50;99.90
25918;DHT22;13899;51.174;4.456;2023-03-14T05:56:36;10.50;99.90
25918;DHT22;13899;51.174;4.456;2023-03-14T05:59:02;10.60;99.90
25918;DHT22;13899;51.174;4.456;2023-03-14T06:01:29;10.50;99.90
25918;DHT22;13899;51.174;4.456;2023-03-14T06:03:55;10.40;99.90
25918;DHT22;13899;51.174;4.456;2023-03-14T06:06:20;10.40;99.90
25918;DHT22;13899;51.174;4.456;2023-03-14T06:08:46;10.20;99.90
25918;DHT22;13899;51.174;4.456;2023-03-14T06:11:13;10.10;99.90
25918;DHT22;13899;51.174;4.456;2023-03-14T06:13:39;10.10;99.90
25918;DHT22;13899;51.174;4.456;2023-03-14T06:16:05;10.00;99.90
25918;DHT22;13899;51.174;4.456;2023-03-14T06:18:30;10.00;99.90
25918;DHT22;13899;51.174;4.456;2023-03-14T06:20:57;10.00;99.90
25918;DHT22;13899;51.174;4.456;2023-03-14T06:23:23;10.00;99.90
25918;DHT22;13899;51.174;4.456;2023-03-14T06:25:49;10.00;99.90
25918;DHT22;13899;51.174;4.456;2023-03-14T06:28:15;10.00;99.90
25918;DHT22;13899;51.174;4.456;2023-03-14T06:30:42;10.10;99.90
25918;DHT22;13899;51.174;4.456;2023-03-14T06:33:08;10.10;99.90
25918;DHT22;13899;51.174;4.456;2023-03-14T06:35:34;10.10;99.90
25918;DHT22;13899;51.174;4.456;2023-03-14T06:38:06;9.80;99.90
25918;DHT22;13899;51.174;4.456;2023-03-14T06:40:32;9.40;99.90
25918;DHT22;13899;51.174;4.456;2023-03-14T06:42:58;9.10;99.90
25918;DHT22;13899;51.174;4.456;2023-03-14T06:45:24;8.80;99.90
25918;DHT22;13899;51.174;4.456;2023-03-14T06:47:50;8.70;99.90
25918;DHT22;13899;51.174;4.456;2023-03-14T06:50:17;8.80;99.90
25918;DHT22;13899;51.174;4.456;2023-03-14T06:52:51;8.80;99.90
25918;DHT22;13899;51.174;4.456;2023-03-14T06:55:17;8.70;99.90
25918;DHT22;13899;51.174;4.456;2023-03-14T06:57:43;8.60;99.90
25918;DHT22;13899;51.174;4.456;2023-03-14T07:00:14;8.70;99.90
25918;DHT22;13899;51.174;4.456;2023-03-14T07:02:40;8.70;99.90
25918;DHT22;13899;51.174;4.456;2023-03-14T07:05:07;8.70;99.90
25918;DHT22;13899;51.174;4.456;2023-03-14T07:07:34;8.60;99.90
25918;DHT22;13899;51.174;4.456;2023-03-14T07:10:00;8.50;99.90
25918;DHT22;13899;51.174;4.456;2023-03-14T07:12:26;8.50;99.90
25918;DHT22;13899;51.174;4.456;2023-03-14T07:14:53;8.40;99.90
25918;DHT22;13899;51.174;4.456;2023-03-14T07:17:26;8.50;99.90
25918;DHT22;13899;51.174;4.456;2023-03-14T07:19:55;8.30;99.90
25918;DHT22;13899;51.174;4.456;2023-03-14T07:22:21;8.20;99.90
25918;DHT22;13899;51.174;4.456;2023-03-14T07:24:49;7.90;99.90
25918;DHT22;13899;51.174;4.456;2023-03-14T07:27:16;7.90;99.90
25918;DHT22;13899;51.174;4.456;2023-03-14T07:29:46;7.80;99.90
25918;DHT22;13899;51.174;4.456;2023-03-14T07:32:15;7.90;99.90
25918;DHT22;13899;51.174;4.456;2023-03-14T07:34:45;8.00;99.90
25918;DHT22;13899;51.174;4.456;2023-03-14T07:37:19;7.90;99.90
25918;DHT22;13899;51.174;4.456;2023-03-14T07:39:45;7.90;99.90
25918;DHT22;13899;51.174;4.456;2023-03-14T07:42:22;7.80;99.90
25918;DHT22;13899;51.174;4.456;2023-03-14T07:44:48;7.80;99.90
25918;DHT22;13899;51.174;4.456;2023-03-14T07:47:13;8.00;99.90
25918;DHT22;13899;51.174;4.456;2023-03-14T07:49:39;8.00;99.90
25918;DHT22;13899;51.174;4.456;2023-03-14T07:52:05;8.00;99.90
25918;DHT22;13899;51.174;4.456;2023-03-14T07:54:30;8.10;99.90
25918;DHT22;13899;51.174;4.456;2023-03-14T07:57:00;8.00;99.90
25918;DHT22;13899;51.174;4.456;2023-03-14T07:59:27;7.80;99.90
25918;DHT22;13899;51.174;4.456;2023-03-14T08:01:52;8.10;99.90
25918;DHT22;13899;51.174;4.456;2023-03-14T08:04:19;8.00;99.90
25918;DHT22;13899;51.174;4.456;2023-03-14T08:06:48;7.90;99.90
25918;DHT22;13899;51.174;4.456;2023-03-14T08:09:13;7.90;99.90
25918;DHT22;13899;51.174;4.456;2023-03-14T08:11:43;8.10;99.90
25918;DHT22;13899;51.174;4.456;2023-03-14T08:14:10;8.20;99.90
25918;DHT22;13899;51.174;4.456;2023-03-14T08:16:36;8.20;99.90
25918;DHT22;13899;51.174;4.456;2023-03-14T08:19:02;8.60;99.90
25918;DHT22;13899;51.174;4.456;2023-03-14T08:21:28;8.60;99.90
25918;DHT22;13899;51.174;4.456;2023-03-14T08:23:55;8.60;99.90
25918;DHT22;13899;51.174;4.456;2023-03-14T08:26:21;8.50;99.90
25918;DHT22;13899;51.174;4.456;2023-03-14T08:28:47;8.60;99.90
25918;DHT22;13899;51.174;4.456;2023-03-14T08:31:18;8.50;99.90
25918;DHT22;13899;51.174;4.456;2023-03-14T08:33:44;8.60;99.90
25918;DHT22;13899;51.174;4.456;2023-03-14T08:36:10;8.50;99.90
25918;DHT22;13899;51.174;4.456;2023-03-14T08:38:36;8.50;99.90
25918;DHT22;13899;51.174;4.456;2023-03-14T08:41:03;8.50;99.90
25918;DHT22;13899;51.174;4.456;2023-03-14T08:43:30;8.40;99.90
25918;DHT22;13899;51.174;4.456;2023-03-14T08:46:00;8.30;99.90
25918;DHT22;13899;51.174;4.456;2023-03-14T08:48:27;8.30;99.90
25918;DHT22;13899;51.174;4.456;2023-03-14T08:50:55;8.50;99.90
25918;DHT22;13899;51.174;4.456;2023-03-14T08:53:20;8.90;99.90
25918;DHT22;13899;51.174;4.456;2023-03-14T08:55:57;9.00;99.90
25918;DHT22;13899;51.174;4.456;2023-03-14T08:58:35;8.70;99.90
25918;DHT22;13899;51.174;4.456;2023-03-14T09:01:10;8.90;99.90
25918;DHT22;13899;51.174;4.456;2023-03-14T09:03:37;8.50;99.90
25918;DHT22;13899;51.174;4.456;2023-03-14T09:06:09;8.40;99.90
25918;DHT22;13899;51.174;4.456;2023-03-14T09:08:35;8.60;99.90
25918;DHT22;13899;51.174;4.456;2023-03-14T09:11:01;8.40;99.90
25918;DHT22;13899;51.174;4.456;2023-03-14T09:13:27;8.50;99.90
25918;DHT22;13899;51.174;4.456;2023-03-14T09:15:55;8.70;99.90
25918;DHT22;13899;51.174;4.456;2023-03-14T09:18:23;8.30;99.90
25918;DHT22;13899;51.174;4.456;2023-03-14T09:20:48;8.30;99.90
25918;DHT22;13899;51.174;4.456;2023-03-14T09:23:16;8.30;99.90
25918;DHT22;13899;51.174;4.456;2023-03-14T09:25:41;8.50;99.90
25918;DHT22;13899;51.174;4.456;2023-03-14T09:28:07;8.20;99.90
25918;DHT22;13899;51.174;4.456;2023-03-14T09:30:33;8.50;99.90
25918;DHT22;13899;51.174;4.456;2023-03-14T09:32:59;8.40;99.90
25918;DHT22;13899;51.174;4.456;2023-03-14T09:35:25;8.40;99.90
25918;DHT22;13899;51.174;4.456;2023-03-14T09:37:54;8.40;99.90
25918;DHT22;13899;51.174;4.456;2023-03-14T09:40:37;8.20;99.90
25918;DHT22;13899;51.174;4.456;2023-03-14T09:43:05;8.10;99.90
25918;DHT22;13899;51.174;4.456;2023-03-14T09:45:41;7.90;99.90
25918;DHT22;13899;51.174;4.456;2023-03-14T09:48:15;8.20;99.90
25918;DHT22;13899;51.174;4.456;2023-03-14T09:50:48;7.90;99.90
25918;DHT22;13899;51.174;4.456;2023-03-14T09:53:17;7.80;99.90
25918;DHT22;13899;51.174;4.456;2023-03-14T09:55:45;7.80;99.90
25918;DHT22;13899;51.174;4.456;2023-03-14T09:58:17;8.10;99.90
25918;DHT22;13899;51.174;4.456;2023-03-14T10:00:44;8.10;99.90
25918;DHT22;13899;51.174;4.456;2023-03-14T10:05:41;7.90;99.90
25918;DHT22;13899;51.174;4.456;2023-03-14T10:08:12;8.10;99.90
25918;DHT22;13899;51.174;4.456;2023-03-14T10:10:37;8.00;99.90
25918;DHT22;13899;51.174;4.456;2023-03-14T10:15:36;8.10;99.90
25918;DHT22;13899;51.174;4.456;2023-03-14T10:18:02;8.50;99.90
25918;DHT22;13899;51.174;4.456;2023-03-14T10:23:22;9.40;99.90
25918;DHT22;13899;51.174;4.456;2023-03-14T10:26:06;9.60;99.90
25918;DHT22;13899;51.174;4.456;2023-03-14T10:28:53;10.00;99.90
25918;DHT22;13899;51.174;4.456;2023-03-14T10:31:26;10.40;99.90
25918;DHT22;13899;51.174;4.456;2023-03-14T10:34:03;9.60;99.90
25918;DHT22;13899;51.174;4.456;2023-03-14T10:36:32;9.40;99.90
25918;DHT22;13899;51.174;4.456;2023-03-14T10:39:23;9.50;99.90
25918;DHT22;13899;51.174;4.456;2023-03-14T10:42:14;9.60;99.90
25918;DHT22;13899;51.174;4.456;2023-03-14T10:44:42;9.40;99.90
25918;DHT22;13899;51.174;4.456;2023-03-14T10:47:17;9.80;99.90
25918;DHT22;13899;51.174;4.456;2023-03-14T10:49:43;10.70;99.90
25918;DHT22;13899;51.174;4.456;2023-03-14T10:52:24;11.70;99.90
25918;DHT22;13899;51.174;4.456;2023-03-14T10:54:57;11.80;99.90
25918;DHT22;13899;51.174;4.456;2023-03-14T10:57:23;12.00;99.90
25918;DHT22;13899;51.174;4.456;2023-03-14T10:59:49;11.90;99.90
25918;DHT22;13899;51.174;4.456;2023-03-14T11:07:44;11.90;99.90
25918;DHT22;13899;51.174;4.456;2023-03-14T11:10:35;11.90;99.90
25918;DHT22;13899;51.174;4.456;2023-03-14T11:13:25;12.10;99.90
25918;DHT22;13899;51.174;4.456;2023-03-14T11:18:41;11.80;99.90
25918;DHT22;13899;51.174;4.456;2023-03-14T11:26:42;11.90;99.90
25918;DHT22;13899;51.174;4.456;2023-03-14T11:32:13;10.80;99.90
25918;DHT22;13899;51.174;4.456;2023-03-14T11:34:54;10.60;99.90
25918;DHT22;13899;51.174;4.456;2023-03-14T11:37:33;10.20;99.90
25918;DHT22;13899;51.174;4.456;2023-03-14T11:40:08;9.60;99.90
25918;DHT22;13899;51.174;4.456;2023-03-14T11:42:38;9.10;99.90
25918;DHT22;13899;51.174;4.456;2023-03-14T11:45:27;8.50;99.90
25918;DHT22;13899;51.174;4.456;2023-03-14T11:50:52;8.80;99.90
25918;DHT22;13899;51.174;4.456;2023-03-14T11:53:43;9.10;99.90
25918;DHT22;13899;51.174;4.456;2023-03-14T11:59:05;10.00;99.90
25918;DHT22;13899;51.174;4.456;2023-03-14T12:01:55;10.60;99.90
25918;DHT22;13899;51.174;4.456;2023-03-14T12:04:43;11.30;99.90
25918;DHT22;13899;51.174;4.456;2023-03-14T12:07:23;12.70;99.90
25918;DHT22;13899;51.174;4.456;2023-03-14T12:09:51;12.20;99.90
25918;DHT22;13899;51.174;4.456;2023-03-14T12:12:20;12.20;99.90
25918;DHT22;13899;51.174;4.456;2023-03-14T12:15:02;12.40;99.90
25918;DHT22;13899;51.174;4.456;2023-03-14T12:17:39;11.90;99.90
25918;DHT22;13899;51.174;4.456;2023-03-14T12:20:18;11.30;99.90
25918;DHT22;13899;51.174;4.456;2023-03-14T12:22:52;11.60;99.90
25918;DHT22;13899;51.174;4.456;2023-03-14T12:25:21;11.80;99.90
25918;DHT22;13899;51.174;4.456;2023-03-14T12:43:36;9.90;99.90
25918;DHT22;13899;51.174;4.456;2023-03-14T12:49:04;10.50;99.90
25918;DHT22;13899;51.174;4.456;2023-03-14T12:51:37;11.00;99.90
25918;DHT22;13899;51.174;4.456;2023-03-14T12:57:09;11.60;99.90
25918;DHT22;13899;51.174;4.456;2023-03-14T12:59:48;11.40;99.90
25918;DHT22;13899;51.174;4.456;2023-03-14T13:02:26;11.50;99.90
25918;DHT22;13899;51.174;4.456;2023-03-14T13:13:09;9.80;99.90
25918;DHT22;13899;51.174;4.456;2023-03-14T13:15:42;9.50;99.90
25918;DHT22;13899;51.174;4.456;2023-03-14T13:21:02;9.80;99.90
25918;DHT22;13899;51.174;4.456;2023-03-14T13:23:33;9.70;99.90
25918;DHT22;13899;51.174;4.456;2023-03-14T13:26:00;9.70;99.90
25918;DHT22;13899;51.174;4.456;2023-03-14T13:28:27;9.80;99.90
25918;DHT22;13899;51.174;4.456;2023-03-14T13:30:58;10.10;99.90
25918;DHT22;13899;51.174;4.456;2023-03-14T13:33:24;10.20;99.90
25918;DHT22;13899;51.174;4.456;2023-03-14T13:35:57;10.20;99.90
25918;DHT22;13899;51.174;4.456;2023-03-14T13:38:25;10.40;99.90
25918;DHT22;13899;51.174;4.456;2023-03-14T13:40:54;10.60;99.90
25918;DHT22;13899;51.174;4.456;2023-03-14T13:43:28;10.50;99.90
25918;DHT22;13899;51.174;4.456;2023-03-14T13:46:11;10.60;99.90
25918;DHT22;13899;51.174;4.456;2023-03-14T13:48:44;10.80;99.90
25918;DHT22;13899;51.174;4.456;2023-03-14T13:51:13;10.90;99.90
25918;DHT22;13899;51.174;4.456;2023-03-14T13:56:10;10.70;99.90
25918;DHT22;13899;51.174;4.456;2023-03-14T13:58:38;10.70;99.90
25918;DHT22;13899;51.174;4.456;2023-03-14T14:01:13;10.70;99.90
25918;DHT22;13899;51.174;4.456;2023-03-14T14:03:41;10.60;99.90
25918;DHT22;13899;51.174;4.456;2023-03-14T14:06:37;11.00;99.90
25918;DHT22;13899;51.174;4.456;2023-03-14T14:09:29;11.00;99.90
25918;DHT22;13899;51.174;4.456;2023-03-14T14:14:34;10.60;99.90
25918;DHT22;13899;51.174;4.456;2023-03-14T14:17:03;10.40;99.90
25918;DHT22;13899;51.174;4.456;2023-03-14T14:19:31;9.60;99.90
25918;DHT22;13899;51.174;4.456;2023-03-14T14:21:58;9.50;99.90
25918;DHT22;13899;51.174;4.456;2023-03-14T14:24:28;9.70;99.90
25918;DHT22;13899;51.174;4.456;2023-03-14T14:26:59;9.30;99.90
25918;DHT22;13899;51.174;4.456;2023-03-14T14:29:31;9.30;99.90
25918;DHT22;13899;51.174;4.456;2023-03-14T14:32:14;8.90;99.30
25918;DHT22;13899;51.174;4.456;2023-03-14T14:37:41;9.30;99.90
25918;DHT22;13899;51.174;4.456;2023-03-14T14:40:19;9.00;99.90
25918;DHT22;13899;51.174;4.456;2023-03-14T14:42:47;9.10;99.90
25918;DHT22;13899;51.174;4.456;2023-03-14T14:45:17;9.20;99.90
25918;DHT22;13899;51.174;4.456;2023-03-14T14:47:51;9.50;99.90
25918;DHT22;13899;51.174;4.456;2023-03-14T14:53:37;10.00;99.90
25918;DHT22;13899;51.174;4.456;2023-03-14T14:56:13;10.20;99.90
25918;DHT22;13899;51.174;4.456;2023-03-14T14:58:40;10.40;99.90
25918;DHT22;13899;51.174;4.456;2023-03-14T15:01:22;10.10;99.90
25918;DHT22;13899;51.174;4.456;2023-03-14T15:03:50;10.20;99.90
25918;DHT22;13899;51.174;4.456;2023-03-14T15:06:17;9.70;99.90
25918;DHT22;13899;51.174;4.456;2023-03-14T15:08:44;9.70;99.90
25918;DHT22;13899;51.174;4.456;2023-03-14T15:11:19;9.70;99.90
25918;DHT22;13899;51.174;4.456;2023-03-14T15:13:45;9.50;99.90
25918;DHT22;13899;51.174;4.456;2023-03-14T15:16:12;9.20;99.90
25918;DHT22;13899;51.174;4.456;2023-03-14T15:18:39;9.30;99.90
25918;DHT22;13899;51.174;4.456;2023-03-14T15:21:05;9.30;99.90
25918;DHT22;13899;51.174;4.456;2023-03-14T15:23:31;9.10;99.90
25918;DHT22;13899;51.174;4.456;2023-03-14T15:25:56;9.10;99.90
25918;DHT22;13899;51.174;4.456;2023-03-14T15:28:25;9.10;99.90
25918;DHT22;13899;51.174;4.456;2023-03-14T15:30:57;9.00;99.90
25918;DHT22;13899;51.174;4.456;2023-03-14T15:33:27;9.00;99.90
25918;DHT22;13899;51.174;4.456;2023-03-14T15:35:54;9.10;99.90
25918;DHT22;13899;51.174;4.456;2023-03-14T15:38:21;9.20;99.90
25918;DHT22;13899;51.174;4.456;2023-03-14T15:40:49;9.30;99.90
25918;DHT22;13899;51.174;4.456;2023-03-14T15:43:15;9.40;99.90
25918;DHT22;13899;51.174;4.456;2023-03-14T15:45:41;9.30;99.90
25918;DHT22;13899;51.174;4.456;2023-03-14T15:48:14;8.80;99.90
25918;DHT22;13899;51.174;4.456;2023-03-14T15:50:40;8.90;99.90
25918;DHT22;13899;51.174;4.456;2023-03-14T15:53:06;9.10;99.90
25918;DHT22;13899;51.174;4.456;2023-03-14T15:55:32;8.90;99.90
25918;DHT22;13899;51.174;4.456;2023-03-14T15:57:57;8.90;99.90
25918;DHT22;13899;51.174;4.456;2023-03-14T16:00:24;8.90;99.90
25918;DHT22;13899;51.174;4.456;2023-03-14T16:02:50;8.80;99.90
25918;DHT22;13899;51.174;4.456;2023-03-14T16:05:16;8.80;99.90
25918;DHT22;13899;51.174;4.456;2023-03-14T16:07:44;8.70;99.90
25918;DHT22;13899;51.174;4.456;2023-03-14T16:10:11;8.50;99.90
25918;DHT22;13899;51.174;4.456;2023-03-14T16:12:37;8.60;99.90
25918;DHT22;13899;51.174;4.456;2023-03-14T16:15:03;8.60;99.90
25918;DHT22;13899;51.174;4.456;2023-03-14T16:17:28;8.80;99.90
25918;DHT22;13899;51.174;4.456;2023-03-14T16:19:54;8.80;99.90
25918;DHT22;13899;51.174;4.456;2023-03-14T16:22:20;8.80;99.90
25918;DHT22;13899;51.174;4.456;2023-03-14T16:24:45;8.90;99.90
25918;DHT22;13899;51.174;4.456;2023-03-14T16:27:11;9.00;99.90
25918;DHT22;13899;51.174;4.456;2023-03-14T16:29:37;8.70;99.90
25918;DHT22;13899;51.174;4.456;2023-03-14T16:32:03;8.90;99.90
25918;DHT22;13899;51.174;4.456;2023-03-14T16:34:28;8.80;99.90
25918;DHT22;13899;51.174;4.456;2023-03-14T16:36:54;8.70;99.90
25918;DHT22;13899;51.174;4.456;2023-03-14T16:39:20;8.90;99.90
25918;DHT22;13899;51.174;4.456;2023-03-14T16:41:46;9.00;99.90
25918;DHT22;13899;51.174;4.456;2023-03-14T16:44:11;9.00;99.90
25918;DHT22;13899;51.174;4.456;2023-03-14T16:46:37;9.10;99.90
25918;DHT22;13899;51.174;4.456;2023-03-14T16:49:04;9.10;99.90
25918;DHT22;13899;51.174;4.456;2023-03-14T16:51:31;9.30;99.90
25918;DHT22;13899;51.174;4.456;2023-03-14T16:53:57;9.20;99.90
25918;DHT22;13899;51.174;4.456;2023-03-14T16:56:22;9.30;99.90
25918;DHT22;13899;51.174;4.456;2023-03-14T16:58:49;9.30;99.90
25918;DHT22;13899;51.174;4.456;2023-03-14T17:01:16;9.20;99.90
25918;DHT22;13899;51.174;4.456;2023-03-14T17:03:48;9.00;99.90
25918;DHT22;13899;51.174;4.456;2023-03-14T17:06:16;9.10;99.90
25918;DHT22;13899;51.174;4.456;2023-03-14T17:08:42;9.40;99.90